createdAt,value
2019-05-12T01:52:29.518Z,3.17
2019-05-12T01:57:18.676Z,3.43
2019-05-12T02:02:02.430Z,3.20
2019-05-12T02:06:48.512Z,2.80
2019-05-12T02:11:33.534Z,3.50
2019-05-12T02:16:19.014Z,3.03
2019-05-12T02:21:04.008Z,3.20
2019-05-12T02:25:48.770Z,3.33
2019-05-12T02:30:34.169Z,3.23
2019-05-12T02:35:19.263Z,3.00
2019-05-12T02:40:04.768Z,3.57
2019-05-12T02:44:50.140Z,3.20
2019-05-12T02:49:35.445Z,3.13
2019-05-12T02:54:25.003Z,3.00
2019-05-12T02:59:09.856Z,2.97
2019-05-12T03:03:56.455Z,2.97
2019-05-12T03:08:44.691Z,3.00
2019-05-12T03:13:28.162Z,3.20
2019-05-12T03:18:14.614Z,2.80
2019-05-12T03:23:00.066Z,2.70
2019-05-12T03:27:44.928Z,3.27
2019-05-12T03:32:29.709Z,2.97
2019-05-12T03:37:17.893Z,2.77
2019-05-12T03:42:05.163Z,3.00
2019-05-12T03:46:50.340Z,3.07
2019-05-12T03:51:36.743Z,3.30
2019-05-12T03:56:25.521Z,3.27
2019-05-12T04:01:08.726Z,3.17
2019-05-12T04:05:55.307Z,3.23
2019-05-12T04:10:40.719Z,3.63
2019-05-12T04:15:25.828Z,2.70
2019-05-12T04:20:10.850Z,3.10
2019-05-12T04:24:55.524Z,3.40
2019-05-12T04:29:44.151Z,3.13
2019-05-12T04:34:29.256Z,3.30
2019-05-12T04:39:14.874Z,2.97
2019-05-12T04:44:00.052Z,3.30
2019-05-12T04:48:46.361Z,2.20
2019-05-12T04:53:31.279Z,2.40
2019-05-12T04:58:16.340Z,2.40
2019-05-12T05:03:01.320Z,2.77
2019-05-12T05:07:46.106Z,2.33
2019-05-12T05:12:30.856Z,1.90
2019-05-12T05:17:15.588Z,2.00
2019-05-12T05:22:00.502Z,2.13
2019-05-12T05:26:49.551Z,2.10
2019-05-12T05:31:36.940Z,2.47
2019-05-12T05:36:21.838Z,2.23
2019-05-12T05:41:10.482Z,2.30
2019-05-12T05:45:56.104Z,2.13
2019-05-12T05:50:39.553Z,2.20
2019-05-12T05:55:24.750Z,1.67
2019-05-12T06:00:17.550Z,2.43
2019-05-12T06:04:58.226Z,2.00
2019-05-12T06:09:46.893Z,1.90
2019-05-12T06:14:34.457Z,2.23
2019-05-12T06:19:19.764Z,1.80
2019-05-12T06:24:08.640Z,2.93
2019-05-12T06:28:51.141Z,2.67
2019-05-12T06:33:36.469Z,2.93
2019-05-12T06:38:24.456Z,3.83
2019-05-12T06:43:09.243Z,3.70
2019-05-12T06:47:56.153Z,4.10
2019-05-12T06:52:48.895Z,4.00
2019-05-12T06:57:30.952Z,4.60
2019-05-12T07:02:17.941Z,3.40
2019-05-12T07:07:04.894Z,4.20
2019-05-12T07:11:58.865Z,3.70
2019-05-12T07:16:36.287Z,3.60
2019-05-12T07:21:24.182Z,3.27
2019-05-12T07:26:13.981Z,3.47
2019-05-12T07:30:54.639Z,3.70
2019-05-12T07:35:44.139Z,3.37
2019-05-12T07:40:30.552Z,3.50
2019-05-12T07:45:20.503Z,3.90
2019-05-12T07:50:04.512Z,4.37
2019-05-12T07:54:52.595Z,4.00
2019-05-12T07:59:40.926Z,4.37
2019-05-12T08:04:23.922Z,3.37
2019-05-12T08:09:09.751Z,4.03
2019-05-12T08:13:54.592Z,3.33
2019-05-12T08:18:44.601Z,3.93
2019-05-12T08:23:37.917Z,3.47
2019-05-12T08:28:28.135Z,3.00
2019-05-12T08:33:10.142Z,3.50
2019-05-12T08:37:55.031Z,3.20
2019-05-12T08:42:39.667Z,3.13
2019-05-12T08:47:29.014Z,3.03
2019-05-12T08:52:10.657Z,2.60
2019-05-12T08:56:59.316Z,2.93
2019-05-12T09:01:43.764Z,3.80
2019-05-12T09:06:29.043Z,2.93
2019-05-12T09:11:14.184Z,3.03
2019-05-12T09:15:59.118Z,3.00
2019-05-12T09:20:48.745Z,2.90
2019-05-12T09:25:30.378Z,3.07
2019-05-12T09:30:17.964Z,2.87
2019-05-12T09:35:03.959Z,3.13
2019-05-12T09:39:51.281Z,2.90
2019-05-12T09:44:35.747Z,2.50
2019-05-12T09:49:25.094Z,2.50
2019-05-12T09:54:07.003Z,2.90
2019-05-12T09:58:59.056Z,2.80
2019-05-12T10:03:41.083Z,2.37
2019-05-12T10:08:29.253Z,2.67
2019-05-12T10:13:13.885Z,2.37
2019-05-12T10:18:00.274Z,2.83
2019-05-12T10:22:45.982Z,2.10
2019-05-12T10:27:32.497Z,2.07
2019-05-12T10:32:17.135Z,2.40
2019-05-12T10:37:05.507Z,2.03
2019-05-12T10:41:50.498Z,3.33
2019-05-12T10:46:35.711Z,1.97
2019-05-12T10:51:20.531Z,2.40
2019-05-12T10:56:05.399Z,2.30
2019-05-12T11:00:50.242Z,2.20
2019-05-12T11:05:35.056Z,2.07
2019-05-12T11:10:20.298Z,1.80
2019-05-12T11:15:08.492Z,2.37
2019-05-12T11:19:54.167Z,1.60
2019-05-12T11:24:39.328Z,1.67
2019-05-12T11:29:24.355Z,2.33
2019-05-12T11:34:09.052Z,2.10
2019-05-12T11:38:54.214Z,2.47
2019-05-12T11:43:38.977Z,2.10
2019-05-12T11:48:23.879Z,2.10
2019-05-12T11:53:08.736Z,1.70
2019-05-12T11:57:54.440Z,1.73
2019-05-12T12:02:39.417Z,1.67
2019-05-12T12:07:24.299Z,1.70
2019-05-12T12:12:08.957Z,2.13
2019-05-12T12:16:54.456Z,1.53
2019-05-12T12:21:40.444Z,1.30
2019-05-12T12:26:30.295Z,1.20
2019-05-12T12:31:13.841Z,1.57
2019-05-12T12:36:00.659Z,1.13
2019-05-12T12:40:48.173Z,1.43
2019-05-12T12:45:52.110Z,1.10
2019-05-12T12:50:36.912Z,1.60
2019-05-12T12:55:23.446Z,0.90
2019-05-12T13:00:08.568Z,1.10
2019-05-12T13:04:53.863Z,1.57
2019-05-12T13:09:38.673Z,1.60
2019-05-12T13:14:28.724Z,1.30
2019-05-12T13:19:15.099Z,1.60
2019-05-12T13:23:56.359Z,1.10
2019-05-12T13:28:45.451Z,0.90
2019-05-12T13:33:27.859Z,1.07
2019-05-12T13:38:14.471Z,1.23
2019-05-12T13:42:59.371Z,1.00
2019-05-12T13:47:44.539Z,1.17
2019-05-12T13:52:30.243Z,1.07
2019-05-12T13:57:15.664Z,0.90
2019-05-12T14:02:00.351Z,0.80
2019-05-12T14:06:47.816Z,1.00
2019-05-12T14:11:34.508Z,1.10
2019-05-12T14:16:19.028Z,0.67
2019-05-12T14:21:04.240Z,1.43
2019-05-12T14:25:49.349Z,1.00
2019-05-12T14:30:34.434Z,1.33
2019-05-12T14:35:19.246Z,1.00
2019-05-12T14:40:04.495Z,0.90
2019-05-12T14:44:49.900Z,1.00
2019-05-12T14:49:34.868Z,1.30
2019-05-12T14:54:20.548Z,1.00
2019-05-12T14:59:05.521Z,1.10
2019-05-12T15:03:50.390Z,0.90
2019-05-12T15:08:39.717Z,1.10
2019-05-12T15:13:24.049Z,1.07
2019-05-12T15:18:11.093Z,1.10
2019-05-12T15:22:55.484Z,0.90
2019-05-12T15:27:45.349Z,1.00
2019-05-12T15:32:27.567Z,1.30
2019-05-12T15:37:13.034Z,1.07
2019-05-12T15:41:58.737Z,1.30
2019-05-12T15:46:46.642Z,1.20
2019-05-12T15:51:35.465Z,1.30
2019-05-12T15:56:23.259Z,1.10
2019-05-12T16:01:04.798Z,1.17
2019-05-12T16:05:50.038Z,1.13
2019-05-12T16:10:36.486Z,1.37
2019-05-12T16:15:22.686Z,1.17
2019-05-12T16:20:07.972Z,1.20
2019-05-12T16:24:53.270Z,1.03
2019-05-12T16:29:38.847Z,1.47
2019-05-12T16:34:24.774Z,1.23
2019-05-12T16:39:09.904Z,1.13
2019-05-12T16:43:55.559Z,1.37
2019-05-12T16:48:42.061Z,1.27
2019-05-12T16:53:28.295Z,1.37
2019-05-12T16:58:13.955Z,1.40
2019-05-12T17:02:59.205Z,1.23
2019-05-12T17:07:44.510Z,1.20
2019-05-12T17:12:32.052Z,1.50
2019-05-12T17:17:16.357Z,1.70
2019-05-12T17:22:01.399Z,1.20
2019-05-12T17:26:46.342Z,1.53
2019-05-12T17:31:33.865Z,0.97
2019-05-12T17:36:19.077Z,1.23
2019-05-12T17:41:03.945Z,1.20
2019-05-12T17:45:50.515Z,1.30
2019-05-12T17:50:35.287Z,1.10
2019-05-12T17:55:20.411Z,1.20
2019-05-12T18:00:10.429Z,1.70
2019-05-12T18:04:53.510Z,1.20
2019-05-12T18:09:39.063Z,1.20
2019-05-12T18:14:27.613Z,1.20
2019-05-12T18:19:15.369Z,1.40
2019-05-12T18:24:00.445Z,1.30
2019-05-12T18:28:45.341Z,1.80
2019-05-12T18:33:34.065Z,1.10
2019-05-12T18:38:21.841Z,1.17
2019-05-12T18:43:04.001Z,1.63
2019-05-12T18:47:49.480Z,1.00
2019-05-12T18:52:42.635Z,1.40
2019-05-12T18:57:23.871Z,1.40
2019-05-12T19:02:14.567Z,1.20
2019-05-12T19:06:55.859Z,1.13
2019-05-12T19:11:42.272Z,1.17
2019-05-12T19:16:27.991Z,1.20
2019-05-12T19:21:16.680Z,1.00
2019-05-12T19:26:00.083Z,1.40
2019-05-12T19:30:45.098Z,1.57
2019-05-12T19:35:31.276Z,1.17
2019-05-12T19:40:17.718Z,1.23
2019-05-12T19:45:07.001Z,1.10
2019-05-12T19:49:50.677Z,1.10
2019-05-12T19:54:36.934Z,1.20
2019-05-12T19:59:23.604Z,1.40
2019-05-12T20:04:08.550Z,1.30
2019-05-12T20:09:05.640Z,1.43
2019-05-12T20:13:40.188Z,1.90
2019-05-12T20:18:25.250Z,1.10
2019-05-12T20:23:10.036Z,1.17
2019-05-12T20:28:04.317Z,1.73
2019-05-12T20:32:43.525Z,0.97
2019-05-12T20:37:28.255Z,1.33
2019-05-12T20:42:14.137Z,1.80
2019-05-12T20:47:01.473Z,1.50
2019-05-12T20:51:48.215Z,1.70
2019-05-12T20:56:34.320Z,1.33
2019-05-12T21:01:24.876Z,1.60
2019-05-12T21:06:06.514Z,1.67
2019-05-12T21:10:53.955Z,0.93
2019-05-12T21:15:42.797Z,1.10
2019-05-12T21:20:24.474Z,1.20
2019-05-12T21:25:11.144Z,0.90
2019-05-12T21:30:00.547Z,0.93
2019-05-12T21:34:43.771Z,1.10
2019-05-12T21:39:29.144Z,0.80
2019-05-12T21:44:14.477Z,1.17
2019-05-12T21:49:09.243Z,0.93
2019-05-12T21:53:50.611Z,1.03
2019-05-12T21:58:35.306Z,0.90
2019-05-12T22:03:20.062Z,0.93
2019-05-12T22:08:12.408Z,0.80
2019-05-12T22:12:53.675Z,1.20
2019-05-12T22:17:56.206Z,1.10
2019-05-12T22:22:43.042Z,1.27
2019-05-12T22:27:30.843Z,1.00
2019-05-12T22:32:18.997Z,0.90
2019-05-12T22:37:01.009Z,1.17
2019-05-12T22:41:45.930Z,1.20
2019-05-12T22:46:33.014Z,1.00
2019-05-12T22:51:23.490Z,1.00
2019-05-12T22:56:12.233Z,1.03
2019-05-12T23:00:51.272Z,1.10
2019-05-12T23:05:37.765Z,1.17
2019-05-12T23:10:22.942Z,1.00
2019-05-12T23:15:08.160Z,1.00
2019-05-12T23:19:55.642Z,1.07
2019-05-12T23:24:40.788Z,1.27
2019-05-12T23:29:30.719Z,1.23
2019-05-12T23:34:14.556Z,1.20
2019-05-12T23:39:00.865Z,0.93
2019-05-12T23:43:47.248Z,1.20
2019-05-12T23:48:33.555Z,0.90
2019-05-12T23:53:18.865Z,1.20
2019-05-12T23:58:04.374Z,1.20
